createdAt,value
2019-01-12T00:00:32.024Z,78.32
2019-01-12T00:01:35.384Z,78.02
2019-01-12T00:02:38.805Z,77.84
2019-01-12T00:03:42.226Z,77.70
2019-01-12T00:04:45.557Z,77.90
2019-01-12T00:05:48.858Z,78.43
2019-01-12T00:06:52.202Z,78.50
2019-01-12T00:07:55.911Z,78.46
2019-01-12T00:08:59.357Z,78.51
2019-01-12T00:10:02.769Z,78.47
2019-01-12T00:11:06.235Z,78.63
2019-01-12T00:12:09.872Z,78.61
2019-01-12T00:13:13.235Z,78.71
2019-01-12T00:14:16.524Z,78.51
2019-01-12T00:15:19.919Z,78.54
2019-01-12T00:16:23.211Z,78.41
2019-01-12T00:17:26.503Z,78.54
2019-01-12T00:18:29.959Z,78.68
2019-01-12T00:19:33.317Z,78.87
2019-01-12T00:20:36.719Z,78.85
2019-01-12T00:21:40.153Z,78.88
2019-01-12T00:22:43.505Z,78.35
2019-01-12T00:23:46.797Z,78.15
2019-01-12T00:24:50.096Z,78.20
2019-01-12T00:25:53.420Z,77.72
2019-01-12T00:26:56.707Z,77.25
2019-01-12T00:28:00.014Z,76.58
2019-01-12T00:29:03.298Z,76.79
2019-01-12T00:30:12.184Z,77.11
2019-01-12T00:31:15.510Z,76.95
2019-01-12T00:32:18.935Z,76.97
2019-01-12T00:33:22.230Z,77.21
2019-01-12T00:34:25.586Z,77.39
2019-01-12T00:35:28.896Z,77.51
2019-01-12T00:36:32.347Z,77.84
2019-01-12T00:37:35.638Z,77.92
2019-01-12T00:38:38.993Z,78.06
2019-01-12T00:39:42.291Z,78.16
2019-01-12T00:40:45.575Z,78.24
2019-01-12T00:41:48.977Z,78.61
2019-01-12T00:42:52.263Z,78.58
2019-01-12T00:43:55.586Z,78.47
2019-01-12T00:44:58.879Z,78.37
2019-01-12T00:46:02.168Z,78.37
2019-01-12T00:47:05.464Z,78.13
2019-01-12T00:48:09.195Z,78.29
2019-01-12T00:49:12.618Z,78.28
2019-01-12T00:50:17.361Z,78.25
2019-01-12T00:51:20.659Z,78.06
2019-01-12T00:52:23.987Z,77.69
2019-01-12T00:53:27.278Z,77.61
2019-01-12T00:54:30.574Z,77.65
2019-01-12T00:55:33.865Z,77.70
2019-01-12T00:56:37.191Z,77.73
2019-01-12T00:57:40.548Z,77.33
2019-01-12T00:58:43.836Z,77.37
2019-01-12T00:59:47.326Z,77.73
2019-01-12T01:00:50.683Z,77.96
2019-01-12T01:01:54.105Z,78.05
2019-01-12T01:02:57.443Z,78.05
2019-01-12T01:04:00.844Z,78.03
2019-01-12T01:05:05.682Z,77.84
2019-01-12T01:06:08.970Z,77.63
2019-01-12T01:07:12.967Z,77.51
2019-01-12T01:08:16.273Z,77.15
2019-01-12T01:09:19.632Z,77.06
2019-01-12T01:10:22.996Z,76.96
2019-01-12T01:11:26.323Z,77.05
2019-01-12T01:12:30.052Z,77.04
2019-01-12T01:13:33.437Z,77.22
2019-01-12T01:14:36.712Z,77.82
2019-01-12T01:15:40.067Z,77.94
2019-01-12T01:16:43.365Z,78.11
2019-01-12T01:17:46.658Z,78.16
2019-01-12T01:18:50.009Z,78.00
2019-01-12T01:19:53.294Z,78.08
2019-01-12T01:20:56.575Z,78.09
2019-01-12T01:21:59.974Z,78.22
2019-01-12T01:23:03.265Z,78.38
2019-01-12T01:24:13.800Z,78.32
2019-01-12T01:25:17.088Z,78.42
2019-01-12T01:26:20.540Z,78.39
2019-01-12T01:27:23.825Z,78.24
2019-01-12T01:28:27.258Z,78.47
2019-01-12T01:29:30.582Z,78.23
2019-01-12T01:30:33.878Z,78.13
2019-01-12T01:31:37.577Z,77.95
2019-01-12T01:32:40.927Z,77.56
2019-01-12T01:33:44.213Z,77.57
2019-01-12T01:34:47.563Z,77.85
2019-01-12T01:35:50.840Z,77.84
2019-01-12T01:36:54.465Z,77.80
2019-01-12T01:37:57.758Z,77.41
2019-01-12T01:39:01.461Z,77.42
2019-01-12T01:40:07.640Z,77.74
2019-01-12T01:41:10.936Z,78.12
2019-01-12T01:42:14.291Z,78.42
2019-01-12T01:43:17.573Z,78.64
2019-01-12T01:44:20.926Z,78.77
2019-01-12T01:45:24.624Z,78.74
2019-01-12T01:46:27.905Z,78.45
2019-01-12T01:47:31.189Z,78.13
2019-01-12T01:48:34.546Z,77.86
2019-01-12T01:49:37.837Z,77.28
2019-01-12T01:50:41.226Z,77.08
2019-01-12T01:51:44.512Z,76.86
2019-01-12T01:52:48.441Z,77.03
2019-01-12T01:53:51.862Z,77.35
2019-01-12T01:54:55.517Z,77.47
2019-01-12T01:55:58.835Z,77.40
2019-01-12T01:57:02.130Z,77.55
2019-01-12T01:58:05.436Z,77.61
2019-01-12T01:59:08.736Z,77.60
2019-01-12T02:00:14.926Z,77.85
2019-01-12T02:01:18.252Z,78.10
2019-01-12T02:02:21.542Z,78.25
2019-01-12T02:03:24.892Z,78.15
2019-01-12T02:04:28.174Z,78.12
2019-01-12T02:05:31.539Z,77.90
2019-01-12T02:06:34.912Z,77.99
2019-01-12T02:07:38.200Z,78.22
2019-01-12T02:08:41.489Z,78.60
2019-01-12T02:09:44.773Z,78.57
2019-01-12T02:10:48.066Z,78.46
2019-01-12T02:11:51.392Z,78.38
2019-01-12T02:12:54.676Z,78.50
2019-01-12T02:13:58.028Z,78.58
2019-01-12T02:15:01.312Z,78.60
2019-01-12T02:16:04.602Z,78.57
2019-01-12T02:17:07.924Z,78.45
2019-01-12T02:18:11.205Z,78.23
2019-01-12T02:19:14.493Z,78.16
2019-01-12T02:20:17.777Z,78.07
2019-01-12T02:21:21.069Z,77.95
2019-01-12T02:22:24.399Z,77.99
2019-01-12T02:23:27.674Z,77.98
2019-01-12T02:24:30.978Z,78.00
2019-01-12T02:25:34.259Z,77.98
2019-01-12T02:26:37.554Z,77.99
2019-01-12T02:27:41.000Z,78.02
2019-01-12T02:28:44.254Z,77.87
2019-01-12T02:29:47.940Z,77.82
2019-01-12T02:30:51.236Z,77.59
2019-01-12T02:31:54.523Z,77.47
2019-01-12T02:32:57.852Z,77.56
2019-01-12T02:34:01.140Z,77.63
2019-01-12T02:35:05.517Z,77.49
2019-01-12T02:36:08.806Z,77.37
2019-01-12T02:37:12.117Z,77.52
2019-01-12T02:38:15.401Z,77.91
2019-01-12T02:39:18.690Z,77.72
2019-01-12T02:40:22.113Z,77.44
2019-01-12T02:41:25.401Z,77.06
2019-01-12T02:42:28.685Z,77.13
2019-01-12T02:43:31.974Z,77.06
2019-01-12T02:44:35.260Z,77.19
2019-01-12T02:45:38.959Z,77.58
2019-01-12T02:46:42.246Z,77.64
2019-01-12T02:47:45.528Z,78.01
2019-01-12T02:48:48.812Z,78.29
2019-01-12T02:49:52.140Z,77.93
2019-01-12T02:50:55.460Z,77.67
2019-01-12T02:51:58.811Z,77.40
2019-01-12T02:53:02.100Z,77.53
2019-01-12T02:54:05.387Z,77.74
2019-01-12T02:55:09.274Z,77.91
2019-01-12T02:56:13.165Z,77.72
2019-01-12T02:57:16.453Z,77.77
2019-01-12T02:58:19.748Z,77.82
2019-01-12T02:59:23.040Z,77.86
2019-01-12T03:00:26.679Z,77.64
2019-01-12T03:01:29.997Z,77.54
2019-01-12T03:02:33.294Z,77.58
2019-01-12T03:03:36.582Z,77.19
2019-01-12T03:04:39.939Z,77.29
2019-01-12T03:05:44.860Z,77.30
2019-01-12T03:06:48.250Z,77.54
2019-01-12T03:07:51.542Z,77.60
2019-01-12T03:08:54.897Z,77.29
2019-01-12T03:09:58.183Z,76.83
2019-01-12T03:11:01.885Z,76.71
2019-01-12T03:12:05.163Z,76.71
2019-01-12T03:13:08.457Z,76.72
2019-01-12T03:14:11.733Z,77.20
2019-01-12T03:15:16.180Z,77.81
2019-01-12T03:16:19.468Z,78.09
2019-01-12T03:17:22.779Z,78.20
2019-01-12T03:18:26.062Z,78.16
2019-01-12T03:19:29.669Z,78.39
2019-01-12T03:20:32.950Z,78.67
2019-01-12T03:21:36.242Z,78.78
2019-01-12T03:22:39.563Z,78.61
2019-01-12T03:23:42.859Z,78.42
2019-01-12T03:24:46.141Z,78.39
2019-01-12T03:25:49.772Z,78.30
2019-01-12T03:26:53.112Z,78.48
2019-01-12T03:27:56.429Z,78.61
2019-01-12T03:28:59.713Z,78.46
2019-01-12T03:30:03.183Z,78.58
2019-01-12T03:31:06.460Z,78.54
2019-01-12T03:32:09.740Z,78.77
2019-01-12T03:33:13.037Z,78.69
2019-01-12T03:34:16.494Z,78.54
2019-01-12T03:35:19.799Z,78.30
2019-01-12T03:36:23.102Z,77.87
2019-01-12T03:37:26.402Z,77.55
2019-01-12T03:38:29.769Z,77.40
2019-01-12T03:39:33.059Z,77.25
2019-01-12T03:40:36.405Z,77.17
2019-01-12T03:41:39.683Z,77.59
2019-01-12T03:42:42.977Z,77.81
2019-01-12T03:43:46.287Z,77.99
2019-01-12T03:44:49.603Z,78.04
2019-01-12T03:45:52.887Z,78.35
2019-01-12T03:46:56.184Z,78.71
2019-01-12T03:47:59.483Z,78.60
2019-01-12T03:49:02.814Z,78.53
2019-01-12T03:50:08.850Z,78.28
2019-01-12T03:51:12.133Z,78.46
2019-01-12T03:52:15.495Z,78.54
2019-01-12T03:53:18.776Z,78.84
2019-01-12T03:54:22.103Z,78.99
2019-01-12T03:55:26.047Z,78.96
2019-01-12T03:56:29.320Z,79.11
2019-01-12T03:57:32.615Z,78.84
2019-01-12T03:58:35.920Z,78.85
2019-01-12T03:59:39.254Z,77.84
2019-01-12T04:00:42.552Z,77.34
2019-01-12T04:01:45.907Z,77.34
2019-01-12T04:02:49.198Z,77.35
2019-01-12T04:03:52.937Z,77.41
2019-01-12T04:04:56.260Z,77.78
2019-01-12T04:05:59.550Z,78.06
2019-01-12T04:07:02.855Z,78.14
2019-01-12T04:08:06.149Z,78.18
2019-01-12T04:09:09.449Z,78.10
2019-01-12T04:10:13.603Z,77.61
2019-01-12T04:11:16.899Z,77.62
2019-01-12T04:12:20.191Z,77.62
2019-01-12T04:13:23.783Z,77.72
2019-01-12T04:14:27.154Z,77.95
2019-01-12T04:15:30.736Z,78.16
2019-01-12T04:16:34.026Z,78.46
2019-01-12T04:17:37.317Z,78.30
2019-01-12T04:18:40.603Z,78.20
2019-01-12T04:19:43.920Z,77.95
2019-01-12T04:20:47.239Z,77.63
2019-01-12T04:21:51.068Z,77.55
2019-01-12T04:22:54.436Z,77.63
2019-01-12T04:23:57.729Z,77.91
2019-01-12T04:25:01.021Z,78.21
2019-01-12T04:26:04.338Z,78.20
2019-01-12T04:27:07.636Z,78.08
2019-01-12T04:28:10.926Z,78.06
2019-01-12T04:29:14.577Z,78.06
2019-01-12T04:30:17.940Z,78.00
2019-01-12T04:31:21.336Z,77.92
2019-01-12T04:32:24.600Z,77.78
2019-01-12T04:33:27.894Z,77.83
2019-01-12T04:34:31.250Z,77.95
2019-01-12T04:35:34.535Z,78.45
2019-01-12T04:36:37.870Z,78.51
2019-01-12T04:37:41.231Z,78.63
2019-01-12T04:38:44.524Z,78.61
2019-01-12T04:39:48.159Z,78.54
2019-01-12T04:40:51.476Z,78.63
2019-01-12T04:41:54.813Z,78.47
2019-01-12T04:42:58.101Z,78.38
2019-01-12T04:44:01.386Z,78.39
2019-01-12T04:45:07.020Z,78.21
2019-01-12T04:46:10.302Z,78.31
2019-01-12T04:47:13.636Z,78.43
2019-01-12T04:48:17.101Z,78.39
2019-01-12T04:49:20.403Z,78.45
2019-01-12T04:50:23.758Z,78.72
2019-01-12T04:51:27.050Z,78.89
2019-01-12T04:52:30.369Z,79.01
2019-01-12T04:53:33.754Z,78.89
2019-01-12T04:54:37.046Z,78.69
2019-01-12T04:55:41.505Z,78.46
2019-01-12T04:56:45.208Z,78.33
2019-01-12T04:57:48.549Z,78.02
2019-01-12T04:58:52.142Z,77.59
2019-01-12T04:59:55.508Z,77.63
2019-01-12T05:00:58.799Z,77.92
2019-01-12T05:02:02.235Z,78.11
2019-01-12T05:03:05.634Z,78.22
2019-01-12T05:04:09.280Z,78.49
2019-01-12T05:05:12.579Z,78.65
2019-01-12T05:06:15.961Z,78.61
2019-01-12T05:07:19.371Z,78.08
2019-01-12T05:08:22.670Z,77.91
2019-01-12T05:09:25.961Z,78.00
2019-01-12T05:10:29.259Z,78.09
2019-01-12T05:11:32.587Z,78.12
2019-01-12T05:12:35.895Z,77.96
2019-01-12T05:13:39.296Z,77.85
2019-01-12T05:14:42.585Z,77.85
2019-01-12T05:15:45.876Z,77.75
2019-01-12T05:16:49.406Z,77.66
2019-01-12T05:17:52.992Z,77.37
2019-01-12T05:18:56.309Z,77.28
2019-01-12T05:19:59.707Z,77.19
2019-01-12T05:21:02.993Z,77.06
2019-01-12T05:22:06.674Z,76.98
2019-01-12T05:23:09.948Z,76.80
2019-01-12T05:24:13.277Z,76.96
2019-01-12T05:25:16.627Z,76.95
2019-01-12T05:26:19.995Z,77.12
2019-01-12T05:27:23.345Z,77.03
2019-01-12T05:28:26.631Z,76.91
2019-01-12T05:29:29.949Z,76.95
2019-01-12T05:30:33.240Z,77.02
2019-01-12T05:31:36.532Z,77.14
2019-01-12T05:32:39.902Z,76.99
2019-01-12T05:33:43.169Z,76.98
2019-01-12T05:34:46.479Z,76.91
2019-01-12T05:35:49.765Z,76.80
2019-01-12T05:36:53.129Z,77.05
2019-01-12T05:37:56.420Z,77.44
2019-01-12T05:38:59.705Z,77.52
2019-01-12T05:40:03.013Z,77.60
2019-01-12T05:41:06.298Z,77.58
2019-01-12T05:42:09.660Z,77.22
2019-01-12T05:43:12.945Z,77.00
2019-01-12T05:44:16.383Z,76.54
2019-01-12T05:45:19.787Z,76.77
2019-01-12T05:46:23.115Z,77.30
2019-01-12T05:47:26.404Z,77.27
2019-01-12T05:48:29.697Z,76.90
2019-01-12T05:49:33.055Z,76.61
2019-01-12T05:50:36.342Z,76.57
2019-01-12T05:51:39.682Z,81.18
2019-01-12T05:52:43.079Z,85.56
2019-01-12T05:53:46.380Z,87.27
2019-01-12T05:54:49.688Z,86.11
2019-01-12T05:55:57.974Z,85.97
2019-01-12T05:56:58.092Z,85.16
2019-01-12T05:58:02.425Z,85.27
2019-01-12T05:59:05.804Z,86.02
2019-01-12T06:00:15.235Z,84.50
2019-01-12T06:01:18.599Z,80.70
2019-01-12T06:02:23.548Z,78.16
2019-01-12T06:03:26.828Z,76.38
2019-01-12T06:04:30.605Z,75.97
2019-01-12T06:05:33.899Z,75.16
2019-01-12T06:06:37.209Z,75.07
2019-01-12T06:07:40.993Z,75.17
2019-01-12T06:08:44.365Z,75.58
2019-01-12T06:09:47.649Z,75.72
2019-01-12T06:10:55.441Z,75.79
2019-01-12T06:11:58.773Z,75.49
2019-01-12T06:13:05.759Z,75.34
2019-01-12T06:14:09.269Z,75.48
2019-01-12T06:15:13.773Z,75.49
2019-01-12T06:16:18.761Z,75.47
2019-01-12T06:17:22.229Z,75.79
2019-01-12T06:18:25.588Z,75.81
2019-01-12T06:19:35.563Z,75.94
2019-01-12T06:20:38.852Z,76.01
2019-01-12T06:21:42.240Z,76.07
2019-01-12T06:22:45.991Z,76.20
2019-01-12T06:23:49.354Z,76.13
2019-01-12T06:24:53.168Z,76.51
2019-01-12T06:25:56.456Z,76.73
2019-01-12T06:26:59.835Z,76.89
2019-01-12T06:28:03.107Z,76.93
2019-01-12T06:29:06.386Z,76.62
2019-01-12T06:30:15.509Z,76.49
2019-01-12T06:31:18.984Z,76.50
2019-01-12T06:32:22.323Z,76.55
2019-01-12T06:33:25.731Z,76.40
2019-01-12T06:34:29.034Z,76.36
2019-01-12T06:35:32.398Z,76.47
2019-01-12T06:36:35.700Z,76.59
2019-01-12T06:37:39.026Z,76.67
2019-01-12T06:38:42.325Z,76.76
2019-01-12T06:39:45.613Z,76.64
2019-01-12T06:40:49.137Z,76.64
2019-01-12T06:41:52.570Z,76.49
2019-01-12T06:42:55.895Z,76.36
2019-01-12T06:43:59.189Z,76.36
2019-01-12T06:45:02.821Z,76.39
2019-01-12T06:46:06.240Z,76.23
2019-01-12T06:47:09.549Z,76.25
2019-01-12T06:48:12.948Z,76.33
2019-01-12T06:49:16.235Z,76.15
2019-01-12T06:50:19.608Z,75.83
2019-01-12T06:51:23.053Z,75.70
2019-01-12T06:52:26.483Z,75.59
2019-01-12T06:53:30.029Z,75.88
2019-01-12T06:54:33.338Z,76.07
2019-01-12T06:55:37.066Z,76.26
2019-01-12T06:56:40.344Z,76.21
2019-01-12T06:57:43.716Z,76.44
2019-01-12T06:58:47.121Z,76.14
2019-01-12T06:59:50.545Z,76.51
2019-01-12T07:00:53.894Z,76.40
2019-01-12T07:01:57.185Z,76.22
2019-01-12T07:03:00.480Z,76.27
2019-01-12T07:04:03.794Z,76.24
2019-01-12T07:05:07.685Z,76.35
2019-01-12T07:06:11.331Z,76.63
2019-01-12T07:07:14.622Z,76.43
2019-01-12T07:08:17.906Z,76.00
2019-01-12T07:09:21.236Z,75.72
2019-01-12T07:10:24.543Z,75.80
2019-01-12T07:11:27.838Z,75.74
2019-01-12T07:12:31.124Z,76.06
2019-01-12T07:13:34.410Z,76.00
2019-01-12T07:14:37.726Z,76.25
2019-01-12T07:15:41.082Z,76.12
2019-01-12T07:16:44.385Z,76.16
2019-01-12T07:17:47.690Z,75.94
2019-01-12T07:18:51.042Z,75.84
2019-01-12T07:19:55.994Z,75.68
2019-01-12T07:20:59.534Z,75.69
2019-01-12T07:22:02.828Z,75.68
2019-01-12T07:23:06.180Z,75.79
2019-01-12T07:24:09.584Z,75.47
2019-01-12T07:25:12.890Z,75.46
2019-01-12T07:26:17.610Z,75.31
2019-01-12T07:27:21.276Z,75.20
2019-01-12T07:28:24.656Z,75.29
2019-01-12T07:29:27.932Z,75.60
2019-01-12T07:30:31.276Z,75.71
2019-01-12T07:31:34.553Z,75.60
2019-01-12T07:32:37.845Z,75.26
2019-01-12T07:33:42.091Z,75.17
2019-01-12T07:34:45.450Z,75.24
2019-01-12T07:35:48.815Z,75.32
2019-01-12T07:36:52.106Z,75.12
2019-01-12T07:37:55.397Z,74.68
2019-01-12T07:38:58.711Z,74.67
2019-01-12T07:40:02.072Z,74.87
2019-01-12T07:41:05.394Z,75.05
2019-01-12T07:42:08.823Z,75.01
2019-01-12T07:43:12.196Z,74.72
2019-01-12T07:44:17.225Z,74.64
2019-01-12T07:45:20.537Z,74.40
2019-01-12T07:46:23.932Z,74.33
2019-01-12T07:47:27.576Z,74.14
2019-01-12T07:48:31.004Z,74.09
2019-01-12T07:49:34.493Z,74.36
2019-01-12T07:50:37.897Z,74.15
2019-01-12T07:51:41.330Z,74.37
2019-01-12T07:52:44.633Z,74.56
2019-01-12T07:53:48.001Z,74.70
2019-01-12T07:54:51.606Z,74.58
2019-01-12T07:55:54.904Z,74.04
2019-01-12T07:56:58.236Z,73.90
2019-01-12T07:58:01.813Z,74.17
2019-01-12T07:59:05.283Z,74.61
2019-01-12T08:00:17.464Z,74.87
2019-01-12T08:01:21.222Z,75.26
2019-01-12T08:02:24.650Z,75.55
2019-01-12T08:03:27.949Z,75.46
2019-01-12T08:04:31.349Z,75.57
2019-01-12T08:05:34.604Z,75.63
2019-01-12T08:06:37.903Z,75.93
2019-01-12T08:07:41.642Z,76.10
2019-01-12T08:08:44.983Z,76.08
2019-01-12T08:09:48.361Z,76.29
2019-01-12T08:10:51.671Z,76.18
2019-01-12T08:11:55.072Z,76.02
2019-01-12T08:12:58.895Z,75.79
2019-01-12T08:14:02.192Z,75.91
2019-01-12T08:15:06.512Z,75.91
2019-01-12T08:16:10.756Z,75.95
2019-01-12T08:17:14.058Z,76.10
2019-01-12T08:18:17.388Z,76.37
2019-01-12T08:19:20.742Z,76.44
2019-01-12T08:20:24.035Z,76.24
2019-01-12T08:21:27.340Z,76.35
2019-01-12T08:22:30.643Z,75.98
2019-01-12T08:23:33.967Z,75.72
2019-01-12T08:24:37.307Z,75.55
2019-01-12T08:25:40.685Z,75.40
2019-01-12T08:26:43.979Z,75.34
2019-01-12T08:27:47.278Z,75.46
2019-01-12T08:28:50.597Z,75.60
2019-01-12T08:29:53.881Z,75.99
2019-01-12T08:30:57.177Z,75.77
2019-01-12T08:32:00.499Z,75.39
2019-01-12T08:33:03.796Z,74.90
2019-01-12T08:34:07.128Z,74.93
2019-01-12T08:35:10.546Z,74.54
2019-01-12T08:36:13.933Z,74.37
2019-01-12T08:37:17.314Z,73.92
2019-01-12T08:38:20.747Z,73.94
2019-01-12T08:39:24.162Z,73.74
2019-01-12T08:40:27.454Z,73.27
2019-01-12T08:41:30.815Z,73.42
2019-01-12T08:42:34.195Z,73.71
2019-01-12T08:43:37.467Z,73.78
2019-01-12T08:44:41.091Z,73.42
2019-01-12T08:45:44.399Z,73.14
2019-01-12T08:46:47.826Z,72.16
2019-01-12T08:47:51.180Z,71.92
2019-01-12T08:48:54.555Z,72.14
2019-01-12T08:49:57.974Z,71.71
2019-01-12T08:51:01.357Z,71.46
2019-01-12T08:52:04.727Z,71.64
2019-01-12T08:53:08.408Z,72.12
2019-01-12T08:54:11.908Z,71.66
2019-01-12T08:55:15.321Z,71.24
2019-01-12T08:56:18.610Z,71.08
2019-01-12T08:57:21.919Z,71.11
2019-01-12T08:58:25.211Z,70.83
2019-01-12T08:59:28.507Z,71.89
2019-01-12T09:00:31.942Z,71.94
2019-01-12T09:01:35.332Z,71.86
2019-01-12T09:02:38.692Z,71.87
2019-01-12T09:03:42.194Z,71.58
2019-01-12T09:04:45.485Z,71.52
2019-01-12T09:05:48.783Z,71.58
2019-01-12T09:06:52.182Z,71.11
2019-01-12T09:07:55.485Z,71.07
2019-01-12T09:08:59.741Z,71.54
2019-01-12T09:10:03.483Z,70.97
2019-01-12T09:11:06.947Z,71.52
2019-01-12T09:12:10.676Z,71.43
2019-01-12T09:13:13.954Z,71.00
2019-01-12T09:14:17.252Z,70.64
2019-01-12T09:15:20.639Z,70.42
2019-01-12T09:16:24.062Z,70.02
2019-01-12T09:17:27.617Z,69.80
2019-01-12T09:18:31.263Z,69.42
2019-01-12T09:19:34.564Z,69.42
2019-01-12T09:20:38.243Z,69.18
2019-01-12T09:21:41.530Z,69.51
2019-01-12T09:22:44.908Z,70.09
2019-01-12T09:23:48.218Z,70.22
2019-01-12T09:24:51.888Z,69.97
2019-01-12T09:25:55.493Z,69.72
2019-01-12T09:26:58.786Z,69.40
2019-01-12T09:28:02.080Z,69.14
2019-01-12T09:29:05.425Z,68.94
2019-01-12T09:30:14.511Z,68.29
2019-01-12T09:31:17.881Z,67.96
2019-01-12T09:32:21.288Z,67.79
2019-01-12T09:33:24.685Z,67.59
2019-01-12T09:34:28.211Z,67.58
2019-01-12T09:35:31.787Z,68.30
2019-01-12T09:36:35.163Z,68.79
2019-01-12T09:37:38.471Z,69.06
2019-01-12T09:38:41.765Z,69.26
2019-01-12T09:39:45.560Z,69.05
2019-01-12T09:40:48.848Z,68.39
2019-01-12T09:41:52.262Z,68.25
2019-01-12T09:42:55.897Z,69.19
2019-01-12T09:43:59.531Z,69.35
2019-01-12T09:45:02.958Z,68.71
2019-01-12T09:46:06.254Z,67.35
2019-01-12T09:47:09.612Z,68.28
2019-01-12T09:48:12.908Z,68.35
2019-01-12T09:49:16.271Z,67.90
2019-01-12T09:50:20.174Z,68.74
2019-01-12T09:51:24.970Z,68.25
2019-01-12T09:52:28.370Z,68.45
2019-01-12T09:53:31.661Z,68.56
2019-01-12T09:54:34.936Z,67.84
2019-01-12T09:55:39.673Z,66.39
2019-01-12T09:56:42.951Z,66.80
2019-01-12T09:57:46.234Z,65.70
2019-01-12T09:58:49.627Z,64.30
2019-01-12T09:59:52.904Z,63.73
2019-01-12T10:00:56.300Z,63.65
2019-01-12T10:01:59.584Z,61.39
2019-01-12T10:03:03.204Z,61.34
2019-01-12T10:04:06.739Z,62.90
2019-01-12T10:05:10.099Z,62.93
2019-01-12T10:06:13.556Z,62.86
2019-01-12T10:07:16.838Z,62.97
2019-01-12T10:08:20.186Z,63.07
2019-01-12T10:09:23.889Z,62.71
2019-01-12T10:10:27.175Z,62.44
2019-01-12T10:11:30.578Z,62.82
2019-01-12T10:12:37.203Z,62.12
2019-01-12T10:13:40.490Z,61.21
2019-01-12T10:14:43.846Z,61.01
2019-01-12T10:15:47.225Z,61.21
2019-01-12T10:16:50.564Z,60.36
2019-01-12T10:17:57.736Z,59.98
2019-01-12T10:19:01.135Z,59.64
2019-01-12T10:20:07.533Z,59.80
2019-01-12T10:21:11.274Z,60.54
2019-01-12T10:22:15.322Z,61.14
2019-01-12T10:23:18.900Z,60.63
2019-01-12T10:24:22.228Z,59.96
2019-01-12T10:25:25.524Z,59.74
2019-01-12T10:26:28.877Z,60.08
2019-01-12T10:27:32.215Z,58.46
2019-01-12T10:28:35.498Z,58.14
2019-01-12T10:29:40.549Z,58.40
2019-01-12T10:30:43.814Z,58.76
2019-01-12T10:31:50.158Z,59.71
2019-01-12T10:32:53.557Z,58.75
2019-01-12T10:33:58.834Z,58.83
2019-01-12T10:35:05.866Z,59.79
2019-01-12T10:36:11.041Z,60.27
2019-01-12T10:37:25.043Z,60.32
2019-01-12T10:38:32.933Z,59.49
2019-01-12T10:39:36.209Z,59.49
2019-01-12T10:40:39.842Z,59.30
2019-01-12T10:41:43.230Z,58.61
2019-01-12T10:42:48.728Z,58.16
2019-01-12T10:43:56.930Z,58.64
2019-01-12T10:45:00.312Z,58.72
2019-01-12T10:46:03.718Z,58.68
2019-01-12T10:47:07.205Z,58.51
2019-01-12T10:48:10.496Z,58.78
2019-01-12T10:49:13.807Z,57.28
2019-01-12T10:50:21.034Z,56.81
2019-01-12T10:51:24.461Z,56.96
2019-01-12T10:52:28.346Z,57.16
2019-01-12T10:53:31.700Z,57.74
2019-01-12T10:54:35.128Z,58.81
2019-01-12T10:55:38.514Z,59.02
2019-01-12T10:56:42.020Z,58.93
2019-01-12T10:57:45.369Z,59.18
2019-01-12T10:58:48.787Z,58.58
2019-01-12T10:59:52.166Z,58.81
2019-01-12T11:01:00.050Z,59.19
2019-01-12T11:02:03.746Z,57.82
2019-01-12T11:03:08.111Z,56.73
2019-01-12T11:04:11.392Z,57.42
2019-01-12T11:05:14.740Z,57.15
2019-01-12T11:06:18.305Z,57.29
2019-01-12T11:07:23.333Z,56.27
2019-01-12T11:08:26.683Z,57.45
2019-01-12T11:09:29.971Z,57.37
2019-01-12T11:10:33.515Z,57.74
2019-01-12T11:11:36.804Z,57.69
2019-01-12T11:12:40.154Z,57.19
2019-01-12T11:13:43.469Z,57.32
2019-01-12T11:14:46.849Z,56.91
2019-01-12T11:15:50.587Z,57.52
2019-01-12T11:16:53.938Z,58.44
2019-01-12T11:17:57.218Z,58.60
2019-01-12T11:19:00.576Z,59.04
2019-01-12T11:20:05.277Z,57.26
2019-01-12T11:21:08.677Z,57.93
2019-01-12T11:22:12.340Z,58.89
2019-01-12T11:23:15.626Z,58.82
2019-01-12T11:24:18.984Z,58.98
2019-01-12T11:25:22.339Z,59.42
2019-01-12T11:26:25.661Z,59.12
2019-01-12T11:27:29.040Z,57.08
2019-01-12T11:28:32.365Z,56.35
2019-01-12T11:29:35.716Z,56.52
2019-01-12T11:30:39.673Z,57.69
2019-01-12T11:31:43.323Z,57.75
2019-01-12T11:32:47.016Z,57.00
2019-01-12T11:33:50.439Z,57.57
2019-01-12T11:34:53.703Z,57.96
2019-01-12T11:35:57.236Z,57.94
2019-01-12T11:37:00.621Z,57.80
2019-01-12T11:38:03.981Z,57.98
2019-01-12T11:39:07.408Z,58.00
2019-01-12T11:40:18.459Z,58.02
2019-01-12T11:41:21.889Z,57.73
2019-01-12T11:42:25.221Z,58.31
2019-01-12T11:43:28.736Z,57.70
2019-01-12T11:44:32.100Z,57.56
2019-01-12T11:45:35.534Z,57.77
2019-01-12T11:46:38.995Z,57.09
2019-01-12T11:47:42.374Z,57.19
2019-01-12T11:48:45.805Z,56.76
2019-01-12T11:49:49.096Z,57.11
2019-01-12T11:50:52.376Z,57.29
2019-01-12T11:51:56.795Z,56.98
2019-01-12T11:53:01.129Z,57.37
2019-01-12T11:54:04.541Z,56.44
2019-01-12T11:55:10.002Z,56.74
2019-01-12T11:56:13.381Z,56.48
2019-01-12T11:57:19.349Z,56.78
2019-01-12T11:58:21.707Z,57.56
2019-01-12T11:59:24.990Z,55.69
2019-01-12T12:00:28.647Z,55.78
2019-01-12T12:01:31.978Z,56.88
2019-01-12T12:02:37.823Z,55.70
2019-01-12T12:03:40.348Z,56.07
2019-01-12T12:04:43.727Z,56.55
2019-01-12T12:05:47.089Z,57.25
2019-01-12T12:06:50.375Z,57.55
2019-01-12T12:07:53.675Z,57.75
2019-01-12T12:08:57.065Z,56.19
2019-01-12T12:10:00.555Z,57.38
2019-01-12T12:11:03.808Z,56.96
2019-01-12T12:12:07.159Z,56.85
2019-01-12T12:13:10.510Z,57.12
2019-01-12T12:14:13.825Z,57.78
2019-01-12T12:15:19.071Z,57.66
2019-01-12T12:16:22.507Z,58.15
2019-01-12T12:17:25.813Z,58.35
2019-01-12T12:18:29.101Z,58.87
2019-01-12T12:19:32.413Z,58.27
2019-01-12T12:20:35.715Z,57.30
2019-01-12T12:21:38.994Z,57.80
2019-01-12T12:22:42.366Z,57.28
2019-01-12T12:23:45.650Z,57.55
2019-01-12T12:24:49.440Z,58.04
2019-01-12T12:25:53.118Z,57.71
2019-01-12T12:26:56.895Z,57.89
2019-01-12T12:28:00.425Z,58.30
2019-01-12T12:29:03.723Z,58.28
2019-01-12T12:30:10.529Z,58.31
2019-01-12T12:31:14.001Z,58.14
2019-01-12T12:32:17.377Z,57.44
2019-01-12T12:33:20.780Z,58.11
2019-01-12T12:34:24.313Z,57.80
2019-01-12T12:35:27.770Z,58.65
2019-01-12T12:36:31.035Z,58.37
2019-01-12T12:37:34.362Z,58.76
2019-01-12T12:38:38.283Z,58.37
2019-01-12T12:39:41.744Z,58.35
2019-01-12T12:40:45.210Z,58.22
2019-01-12T12:41:49.241Z,57.59
2019-01-12T12:43:00.261Z,57.99
2019-01-12T12:44:03.722Z,58.56
2019-01-12T12:45:18.093Z,58.60
2019-01-12T12:46:21.470Z,57.93
2019-01-12T12:47:25.132Z,57.63
2019-01-12T12:49:50.816Z,58.65
2019-01-12T12:50:54.292Z,58.69
2019-01-12T12:51:57.640Z,58.36
2019-01-12T12:53:00.936Z,58.89
2019-01-12T12:54:06.487Z,58.84
2019-01-12T12:55:10.759Z,58.50
2019-01-12T12:56:14.146Z,58.86
2019-01-12T12:57:17.467Z,58.36
2019-01-12T12:58:20.753Z,58.72
2019-01-12T12:59:24.112Z,58.35
2019-01-12T13:00:29.336Z,58.21
2019-01-12T13:01:32.668Z,58.27
2019-01-12T13:02:35.997Z,57.73
2019-01-12T13:03:39.532Z,58.54
2019-01-12T13:04:43.135Z,58.48
2019-01-12T13:05:46.654Z,59.21
2019-01-12T13:06:50.045Z,59.50
2019-01-12T13:07:55.132Z,59.03
2019-01-12T13:08:58.603Z,58.20
2019-01-12T13:10:01.889Z,59.24
2019-01-12T13:11:07.675Z,57.95
2019-01-12T13:12:11.372Z,58.16
2019-01-12T13:13:14.804Z,59.17
2019-01-12T13:14:21.314Z,59.30
2019-01-12T13:15:25.111Z,59.12
2019-01-12T13:16:28.467Z,59.67
2019-01-12T13:17:31.855Z,59.25
2019-01-12T13:18:35.278Z,58.03
2019-01-12T13:19:39.040Z,58.88
2019-01-12T13:20:42.535Z,58.95
2019-01-12T13:21:46.088Z,59.03
2019-01-12T13:22:49.667Z,59.31
2019-01-12T13:23:52.934Z,59.61
2019-01-12T13:24:56.341Z,59.04
2019-01-12T13:25:59.704Z,59.51
2019-01-12T13:27:03.077Z,58.51
2019-01-12T13:28:06.437Z,58.08
2019-01-12T13:29:09.735Z,58.36
2019-01-12T13:30:15.684Z,58.71
2019-01-12T13:31:18.988Z,58.78
2019-01-12T13:32:22.270Z,58.75
2019-01-12T13:33:25.620Z,58.48
2019-01-12T13:34:29.113Z,58.58
2019-01-12T13:35:32.442Z,59.10
2019-01-12T13:36:35.736Z,59.54
2019-01-12T13:37:39.098Z,59.35
2019-01-12T13:38:42.386Z,58.69
2019-01-12T13:39:45.664Z,58.70
2019-01-12T13:40:49.159Z,59.56